Time;durP1;ratioP1;P1;durP2;ratioP2;P2;SDS_P1;SDS_P2;PMS_P1;PMS_P2;Temp;Humidity;BMP_temperature;BMP_pressure;BME280_temperature;BME280_humidity;BME280_pressure;Samples;Min_cycle;Max_cycle;Signal;HPM_P1;HPM_P2
2023/10/24 00:01:15;;;;;;;;;;;;;;;11.61;95.02;95444.16;5134440;28;1059;-67
2023/10/24 00:03:40;;;;;;;;;;;;;;;11.81;93.89;95449.28;5134159;28;982;-67
2023/10/24 00:06:07;;;;;;;;;;;;;;;11.73;93.67;95452.75;5134137;28;962;-67
2023/10/24 00:08:33;;;;;;;;;;;;;;;11.70;93.75;95445.03;5115553;28;1989;-67
2023/10/24 00:11:00;;;;;;;;;;;;;;;11.68;93.44;95444.34;5134275;28;1003;-67
2023/10/24 00:13:26;;;;;;;;;;;;;;;11.72;93.31;95441.22;5141864;27;997;-67
2023/10/24 00:15:52;;;;;;;;;;;;;;;11.65;93.33;95437.50;5157817;27;1044;-67
2023/10/24 00:18:18;;;;;;;;;;;;;;;11.49;94.50;95440.91;5158425;27;968;-67
2023/10/24 00:20:44;;;;;;;;;;;;;;;11.51;94.29;95444.28;5158479;27;970;-67
2023/10/24 00:23:10;;;;;;;;;;;;;;;11.53;94.50;95436.94;5139902;27;1052;-67
2023/10/24 00:25:35;;;;;;;;;;;;;;;11.63;94.65;95444.84;5158407;27;1030;-67
2023/10/24 00:28:01;;;;;;;;;;;;;;;11.69;94.12;95441.53;5158152;27;1909;-67
2023/10/24 00:30:27;;;;;;;;;;;;;;;11.67;94.09;95442.69;5158187;27;968;-67
2023/10/24 00:32:53;;;;;;;;;;;;;;;11.66;94.52;95443.69;5151615;27;1180;-67
2023/10/24 00:35:19;;;;;;;;;;;;;;;11.53;94.13;95444.97;5119066;27;1275;-66
2023/10/24 00:37:45;;;;;;;;;;;;;;;11.52;94.76;95447.81;5137071;27;1008;-66
2023/10/24 00:40:11;;;;;;;;;;;;;;;11.57;94.20;95441.97;5137216;27;1064;-68
2023/10/24 00:42:37;;;;;;;;;;;;;;;11.56;94.58;95440.28;5119000;27;1004;-67
2023/10/24 00:45:04;;;;;;;;;;;;;;;11.57;94.52;95442.78;5137296;27;969;-67
2023/10/24 00:47:30;;;;;;;;;;;;;;;11.63;93.72;95439.50;5136805;27;1959;-67
2023/10/24 00:49:56;;;;;;;;;;;;;;;11.59;93.61;95439.94;5118649;27;1087;-68
2023/10/24 00:52:22;;;;;;;;;;;;;;;11.58;94.23;95443.66;5136717;27;1044;-67
2023/10/24 00:54:48;;;;;;;;;;;;;;;11.58;94.19;95443.66;5136742;27;1044;-67
2023/10/24 00:57:14;;;;;;;;;;;;;;;11.70;93.87;95443.22;5136871;27;972;-67
2023/10/24 00:59:41;;;;;;;;;;;;;;;11.51;94.03;95443.44;5136685;27;1051;-67
2023/10/24 01:02:07;;;;;;;;;;;;;;;11.33;93.29;95449.72;5136653;27;1028;-68
2023/10/24 01:04:34;;;;;;;;;;;;;;;11.30;93.52;95446.50;5136624;27;968;-67
2023/10/24 01:07:00;;;;;;;;;;;;;;;11.34;93.60;95445.19;5136297;27;1901;-68
2023/10/24 01:09:25;;;;;;;;;;;;;;;11.27;93.88;95441.47;5136657;27;1032;-67
2023/10/24 01:11:55;;;;;;;;;;;;;;;11.31;93.95;95438.31;5136397;27;1075;-67
2023/10/24 01:14:21;;;;;;;;;;;;;;;11.30;93.61;95436.63;5136395;27;972;-67
2023/10/24 01:16:46;;;;;;;;;;;;;;;11.22;93.45;95439.25;5136338;27;1071;-67
2023/10/24 01:19:12;;;;;;;;;;;;;;;11.14;93.81;95437.38;5136279;27;982;-67
2023/10/24 01:21:43;;;;;;;;;;;;;;;11.14;93.89;95424.00;5136223;27;999;-67
2023/10/24 01:24:10;;;;;;;;;;;;;;;11.14;94.08;95425.84;5136466;27;948;-67
2023/10/24 01:26:37;;;;;;;;;;;;;;;11.14;93.92;95428.53;5136361;27;1040;-67
2023/10/24 01:29:03;;;;;;;;;;;;;;;11.07;93.96;95419.44;5117827;27;1059;-67
2023/10/24 01:31:28;;;;;;;;;;;;;;;11.08;94.07;95424.63;5135977;27;1099;-67
2023/10/24 01:33:54;;;;;;;;;;;;;;;11.02;94.15;95421.72;5136207;27;1161;-67
2023/10/24 01:36:20;;;;;;;;;;;;;;;10.99;94.64;95422.06;5135965;27;1044;-66
2023/10/24 01:38:46;;;;;;;;;;;;;;;11.05;94.45;95432.13;5136064;27;1968;-67
2023/10/24 01:41:12;;;;;;;;;;;;;;;11.07;94.50;95427.47;5135977;27;996;-68
2023/10/24 01:43:38;;;;;;;;;;;;;;;11.06;94.04;95421.28;5135897;27;1104;-67
2023/10/24 01:46:04;;;;;;;;;;;;;;;11.13;94.01;95418.78;5135977;27;1075;-67
2023/10/24 01:48:30;;;;;;;;;;;;;;;11.12;94.27;95417.97;5135705;27;1032;-67
2023/10/24 01:50:56;;;;;;;;;;;;;;;11.13;94.23;95418.78;5135625;27;1083;-67
2023/10/24 01:53:22;;;;;;;;;;;;;;;11.13;94.22;95422.34;5135864;27;985;-67
2023/10/24 01:55:48;;;;;;;;;;;;;;;10.99;94.41;95411.38;5135862;27;1067;-67
2023/10/24 01:58:14;;;;;;;;;;;;;;;10.99;94.35;95412.19;5135634;27;1988;-67
2023/10/24 02:00:40;;;;;;;;;;;;;;;11.06;94.53;95413.25;5135782;27;1093;-67
2023/10/24 02:03:06;;;;;;;;;;;;;;;11.04;94.33;95412.56;5135689;27;1052;-68
2023/10/24 02:05:32;;;;;;;;;;;;;;;11.07;94.41;95411.41;5135436;27;1040;-67
2023/10/24 02:07:58;;;;;;;;;;;;;;;11.05;94.56;95414.25;5126805;27;1317;-67
2023/10/24 02:10:24;;;;;;;;;;;;;;;10.98;94.09;95418.53;5115038;28;1049;-66
2023/10/24 02:12:50;;;;;;;;;;;;;;;11.00;94.75;95424.56;5114997;28;986;-66
2023/10/24 02:15:16;;;;;;;;;;;;;;;11.02;94.92;95422.59;5114717;28;1028;-66
2023/10/24 02:17:42;;;;;;;;;;;;;;;11.01;94.54;95426.25;5114767;28;2003;-66
2023/10/24 02:20:08;;;;;;;;;;;;;;;10.88;94.42;95421.31;5114685;28;970;-66
2023/10/24 02:22:34;;;;;;;;;;;;;;;10.86;94.09;95417.94;5096903;28;989;-66
2023/10/24 02:25:00;;;;;;;;;;;;;;;10.99;94.31;95422.06;5096773;28;1118;-66
2023/10/24 02:27:27;;;;;;;;;;;;;;;10.86;93.94;95427.81;5114491;28;1032;-66
2023/10/24 02:29:53;;;;;;;;;;;;;;;10.58;94.72;95427.09;5114649;28;967;-66
2023/10/24 02:32:19;;;;;;;;;;;;;;;10.58;94.98;95427.09;5115891;28;1146;-66
2023/10/24 02:34:51;;;;;;;;;;;;;;;10.57;95.07;95420.91;5134889;27;1091;-65
2023/10/24 02:37:17;;;;;;;;;;;;;;;10.81;94.20;95424.75;5134242;27;1930;-66
2023/10/24 02:39:44;;;;;;;;;;;;;;;10.69;94.39;95421.50;5134791;27;1114;-67
2023/10/24 02:42:10;;;;;;;;;;;;;;;10.76;95.10;95425.25;5134927;27;985;-66
2023/10/24 02:44:36;;;;;;;;;;;;;;;10.92;94.78;95438.72;5134834;27;1057;-66
2023/10/24 02:47:02;;;;;;;;;;;;;;;10.89;94.96;95435.53;5134631;27;1306;-66
2023/10/24 02:49:28;;;;;;;;;;;;;;;10.86;94.98;95434.00;5134573;27;1044;-67
2023/10/24 02:51:54;;;;;;;;;;;;;;;10.63;95.28;95439.00;5134765;27;1034;-66
2023/10/24 02:54:20;;;;;;;;;;;;;;;10.50;95.85;95435.88;5134672;27;942;-66
2023/10/24 02:56:45;;;;;;;;;;;;;;;10.66;95.08;95449.41;5134618;27;1918;-66
2023/10/24 02:59:12;;;;;;;;;;;;;;;10.74;94.35;95440.63;5134524;27;975;-66
2023/10/24 03:01:38;;;;;;;;;;;;;;;10.71;94.41;95444.41;5134429;27;1120;-66
2023/10/24 03:04:04;;;;;;;;;;;;;;;10.64;94.59;95445.19;5134389;27;1044;-67
2023/10/24 03:06:30;;;;;;;;;;;;;;;10.64;94.92;95451.41;5134257;27;1045;-66
2023/10/24 03:08:56;;;;;;;;;;;;;;;10.64;94.17;95451.41;5151373;27;1169;-63
2023/10/24 03:11:23;;;;;;;;;;;;;;;10.64;94.26;95456.75;5155183;27;1023;-66
2023/10/24 03:13:49;;;;;;;;;;;;;;;10.45;93.91;95457.75;5155199;27;969;-64
2023/10/24 03:16:15;;;;;;;;;;;;;;;10.46;93.66;95455.91;5155015;27;1000;-68
2023/10/24 03:18:41;;;;;;;;;;;;;;;10.39;93.75;95458.34;5154973;27;1902;-66
2023/10/24 03:21:07;;;;;;;;;;;;;;;10.41;94.28;95459.03;5154918;27;1003;-63
2023/10/24 03:23:33;;;;;;;;;;;;;;;10.49;93.80;95453.78;5155134;27;1047;-64
2023/10/24 03:26:00;;;;;;;;;;;;;;;10.44;93.54;95449.88;5155046;27;966;-63
2023/10/24 03:28:26;;;;;;;;;;;;;;;10.23;94.02;95458.16;5154967;27;1032;-65
2023/10/24 03:31:05;;;;;;;;;;;;;;;10.14;94.78;95463.41;5155000;27;1034;-66
2023/10/24 03:33:31;;;;;;;;;;;;;;;10.33;94.42;95458.94;5143072;27;1219;-65
2023/10/24 03:35:58;;;;;;;;;;;;;;;10.40;93.61;95457.34;5134401;28;1060;-65
2023/10/24 03:38:24;;;;;;;;;;;;;;;10.33;94.29;95462.47;5134056;28;1901;-66
2023/10/24 03:40:50;;;;;;;;;;;;;;;10.37;94.51;95457.66;5134089;28;1135;-66
2023/10/24 03:43:16;;;;;;;;;;;;;;;10.32;94.43;95459.94;5133987;28;1189;-66
2023/10/24 03:45:43;;;;;;;;;;;;;;;10.34;94.50;95455.31;5134118;28;992;-66
2023/10/24 03:48:09;;;;;;;;;;;;;;;10.35;94.72;95463.16;5133971;27;1052;-67
2023/10/24 03:50:36;;;;;;;;;;;;;;;10.29;94.75;95463.72;5137183;27;1048;-66
2023/10/24 03:53:03;;;;;;;;;;;;;;;10.28;94.33;95474.56;5138159;27;1027;-66
2023/10/24 03:55:30;;;;;;;;;;;;;;;10.20;94.53;95474.47;5137992;27;1000;-66
2023/10/24 03:57:59;;;;;;;;;;;;;;;10.11;94.74;95471.72;5137735;27;1997;-64
2023/10/24 04:00:25;;;;;;;;;;;;;;;10.16;95.41;95479.28;5137779;27;964;-70
2023/10/24 04:02:52;;;;;;;;;;;;;;;10.22;95.34;95481.34;5137779;27;981;-64
2023/10/24 04:05:18;;;;;;;;;;;;;;;10.20;94.99;95479.84;5137593;27;1070;-64
2023/10/24 04:07:44;;;;;;;;;;;;;;;10.11;95.29;95476.22;5137771;27;1088;-64
2023/10/24 04:10:11;;;;;;;;;;;;;;;10.15;95.16;95481.13;5137865;27;1028;-64
2023/10/24 04:12:37;;;;;;;;;;;;;;;10.16;95.08;95477.44;5137557;27;1065;-64
2023/10/24 04:15:05;;;;;;;;;;;;;;;10.18;94.86;95482.66;5137659;27;1215;-64
2023/10/24 04:17:34;;;;;;;;;;;;;;;10.26;95.21;95481.88;5119117;27;1922;-64
2023/10/24 04:20:01;;;;;;;;;;;;;;;10.23;95.25;95493.72;5137703;27;1032;-65
2023/10/24 04:22:30;;;;;;;;;;;;;;;10.22;95.30;95489.38;5119335;27;948;-65
2023/10/24 04:24:56;;;;;;;;;;;;;;;10.17;95.47;95491.66;5137385;27;1595;-64
2023/10/24 04:27:22;;;;;;;;;;;;;;;10.13;95.99;95495.59;5137351;27;1059;-65
2023/10/24 04:29:48;;;;;;;;;;;;;;;10.24;95.74;95498.06;5137261;27;977;-65
2023/10/24 04:32:14;;;;;;;;;;;;;;;10.30;95.62;95493.97;5137991;27;1169;-65
2023/10/24 04:34:40;;;;;;;;;;;;;;;10.38;96.01;95506.59;5139565;27;1115;-64
2023/10/24 04:37:06;;;;;;;;;;;;;;;10.40;95.43;95515.34;5157999;27;1902;-64
2023/10/24 04:39:32;;;;;;;;;;;;;;;10.47;94.42;95516.38;5157763;27;1051;-63
2023/10/24 04:41:58;;;;;;;;;;;;;;;10.33;94.29;95513.25;5157894;27;973;-65
2023/10/24 04:44:24;;;;;;;;;;;;;;;10.01;94.72;95513.69;5157713;27;1038;-66
2023/10/24 04:46:50;;;;;;;;;;;;;;;9.96;94.73;95511.47;5158005;27;1045;-64
2023/10/24 04:49:16;;;;;;;;;;;;;;;10.02;94.96;95509.19;5157612;27;1106;-64
2023/10/24 04:51:43;;;;;;;;;;;;;;;9.97;94.91;95513.13;5157661;27;1044;-65
2023/10/24 04:54:09;;;;;;;;;;;;;;;10.02;95.03;95510.03;5157555;27;1080;-65
2023/10/24 04:56:35;;;;;;;;;;;;;;;10.02;95.22;95517.22;5157491;27;1067;-65
2023/10/24 04:59:01;;;;;;;;;;;;;;;10.02;95.22;95512.69;5157415;27;1044;-64
2023/10/24 05:01:27;;;;;;;;;;;;;;;9.95;95.42;95512.44;5156915;27;1031;-64
2023/10/24 05:03:53;;;;;;;;;;;;;;;10.06;95.47;95518.59;5157393;27;1048;-65
2023/10/24 05:06:19;;;;;;;;;;;;;;;10.18;94.37;95516.56;5157432;27;1092;-65
2023/10/24 05:08:45;;;;;;;;;;;;;;;10.19;94.28;95523.56;5138952;27;1118;-65
2023/10/24 05:11:11;;;;;;;;;;;;;;;10.13;93.92;95523.19;5157187;27;1091;-66
2023/10/24 05:13:37;;;;;;;;;;;;;;;10.18;93.81;95533.41;5138858;27;1040;-66
2023/10/24 05:16:04;;;;;;;;;;;;;;;10.24;93.67;95535.47;5138217;27;1037;-66
2023/10/24 05:18:30;;;;;;;;;;;;;;;10.14;93.50;95535.53;5156480;27;1989;-66
2023/10/24 05:20:56;;;;;;;;;;;;;;;10.09;94.51;95540.50;5156712;27;1110;-66
2023/10/24 05:23:22;;;;;;;;;;;;;;;10.06;94.96;95546.16;5156537;27;1048;-66
2023/10/24 05:25:50;;;;;;;;;;;;;;;10.25;95.03;95541.69;5156520;27;981;-66
2023/10/24 05:28:16;;;;;;;;;;;;;;;10.41;94.05;95557.94;5138275;27;1087;-66
2023/10/24 05:30:42;;;;;;;;;;;;;;;10.46;94.13;95555.66;5156761;27;1115;-66
2023/10/24 05:33:08;;;;;;;;;;;;;;;10.44;94.19;95559.47;5148473;27;1183;-66
2023/10/24 05:35:34;;;;;;;;;;;;;;;10.62;94.26;95560.31;5135836;27;1036;-66
2023/10/24 05:38:00;;;;;;;;;;;;;;;10.90;93.46;95563.78;5135785;27;1989;-66
2023/10/24 05:40:26;;;;;;;;;;;;;;;11.07;92.77;95563.94;5117492;27;1032;-66
2023/10/24 05:42:52;;;;;;;;;;;;;;;11.38;91.59;95563.50;5135684;27;1068;-66
2023/10/24 05:45:18;;;;;;;;;;;;;;;11.60;90.88;95571.03;5135648;27;981;-66
2023/10/24 05:47:44;;;;;;;;;;;;;;;11.84;90.68;95567.69;5135578;27;1175;-66
2023/10/24 05:50:11;;;;;;;;;;;;;;;12.05;89.92;95567.31;5117579;27;1501;-66
2023/10/24 05:52:37;;;;;;;;;;;;;;;12.60;88.32;95567.88;5135568;27;1104;-66
2023/10/24 05:55:03;;;;;;;;;;;;;;;14.20;80.07;95566.50;5135615;27;981;-66
2023/10/24 05:57:29;;;;;;;;;;;;;;;15.75;73.44;95559.34;5135322;27;2021;-65
2023/10/24 05:59:56;;;;;;;;;;;;;;;16.52;69.99;95558.16;5135444;27;1024;-66
2023/10/24 06:02:22;;;;;;;;;;;;;;;16.72;69.26;95561.09;5135331;27;1118;-66
2023/10/24 06:04:48;;;;;;;;;;;;;;;16.96;68.51;95565.34;5135783;27;1045;-66
2023/10/24 06:07:14;;;;;;;;;;;;;;;17.63;66.68;95587.63;5135104;27;1187;-66
2023/10/24 06:09:40;;;;;;;;;;;;;;;18.39;63.67;95586.16;5135381;27;1033;-66
2023/10/24 06:12:08;;;;;;;;;;;;;;;18.79;61.42;95583.66;5134627;27;952;-66
2023/10/24 06:14:34;;;;;;;;;;;;;;;18.59;61.57;95578.13;5135367;27;1036;-66
2023/10/24 06:17:00;;;;;;;;;;;;;;;18.09;63.03;95579.06;5135251;27;1992;-66
2023/10/24 06:19:26;;;;;;;;;;;;;;;17.52;66.13;95585.44;5116855;27;1043;-67
2023/10/24 06:21:53;;;;;;;;;;;;;;;17.26;67.72;95589.53;5135204;27;966;-66
2023/10/24 06:24:19;;;;;;;;;;;;;;;17.64;66.81;95578.50;5135082;27;933;-65
2023/10/24 06:26:45;;;;;;;;;;;;;;;18.61;62.91;95585.03;5116837;27;1040;-65
2023/10/24 06:29:11;;;;;;;;;;;;;;;18.98;60.98;95579.38;5134820;27;1099;-66
2023/10/24 06:31:37;;;;;;;;;;;;;;;19.00;60.52;95574.59;5135132;27;1016;-66
2023/10/24 06:34:03;;;;;;;;;;;;;;;19.99;57.88;95576.63;5151340;27;1149;-66
2023/10/24 06:36:29;;;;;;;;;;;;;;;21.20;53.22;95580.72;5155626;27;1035;-66
2023/10/24 06:38:55;;;;;;;;;;;;;;;22.21;50.75;95580.84;5137241;27;1878;-66
2023/10/24 06:41:21;;;;;;;;;;;;;;;22.84;48.78;95593.47;5155368;27;1032;-66
2023/10/24 06:43:47;;;;;;;;;;;;;;;23.03;48.83;95591.59;5155339;27;912;-66
2023/10/24 06:46:13;;;;;;;;;;;;;;;22.97;47.54;95582.41;5155466;27;1008;-66
2023/10/24 06:48:39;;;;;;;;;;;;;;;22.84;47.49;95581.72;5155595;27;1007;-66
2023/10/24 06:51:05;;;;;;;;;;;;;;;22.34;48.85;95578.03;5155439;27;992;-67
2023/10/24 06:53:31;;;;;;;;;;;;;;;20.97;52.80;95567.66;5155411;27;1052;-67
2023/10/24 06:55:59;;;;;;;;;;;;;;;19.24;59.24;95549.63;5155376;27;1031;-65
2023/10/24 06:58:25;;;;;;;;;;;;;;;18.44;62.93;95556.59;5155590;27;1988;-63
2023/10/24 07:00:51;;;;;;;;;;;;;;;18.23;63.16;95558.38;5155419;27;988;-62
2023/10/24 07:03:17;;;;;;;;;;;;;;;18.09;62.76;95562.84;5155268;27;1071;-64
2023/10/24 07:05:48;;;;;;;;;;;;;;;17.80;65.76;95554.91;5136932;27;1047;-63
2023/10/24 07:08:14;;;;;;;;;;;;;;;17.28;68.07;95549.69;5155017;27;1107;-64
2023/10/24 07:10:40;;;;;;;;;;;;;;;17.33;67.36;95535.59;5155138;27;956;-63
2023/10/24 07:13:06;;;;;;;;;;;;;;;17.26;69.09;95537.38;5154916;27;1067;-62
2023/10/24 07:15:32;;;;;;;;;;;;;;;17.11;69.75;95540.13;5154893;27;1507;-63
2023/10/24 07:17:58;;;;;;;;;;;;;;;17.23;68.63;95535.09;5154845;27;1898;-63
2023/10/24 07:20:23;;;;;;;;;;;;;;;16.96;70.10;95542.91;5154879;27;1102;-63
2023/10/24 07:22:49;;;;;;;;;;;;;;;16.96;71.75;95543.75;5154539;27;1056;-64
2023/10/24 07:25:15;;;;;;;;;;;;;;;17.26;70.47;95542.78;5159188;27;1047;-65
2023/10/24 07:27:41;;;;;;;;;;;;;;;17.47;70.22;95540.09;5159100;27;1100;-63
2023/10/24 07:30:09;;;;;;;;;;;;;;;17.58;68.63;95546.81;5159284;27;972;-63
2023/10/24 07:32:35;;;;;;;;;;;;;;;17.55;69.57;95541.81;5155299;27;1350;-63
2023/10/24 07:35:01;;;;;;;;;;;;;;;17.80;69.50;95539.50;5137520;27;1056;-63
2023/10/24 07:37:28;;;;;;;;;;;;;;;17.88;68.97;95533.16;5137176;27;1910;-63
2023/10/24 07:39:54;;;;;;;;;;;;;;;17.79;67.55;95527.00;5137297;27;1106;-64
2023/10/24 07:42:20;;;;;;;;;;;;;;;17.62;67.64;95528.34;5119522;27;1028;-64
2023/10/24 07:44:46;;;;;;;;;;;;;;;17.88;68.01;95525.03;5138106;27;1103;-63
2023/10/24 07:47:12;;;;;;;;;;;;;;;17.98;65.60;95524.69;5138075;27;1020;-64
2023/10/24 07:49:38;;;;;;;;;;;;;;;17.87;65.95;95521.50;5138087;27;973;-64
2023/10/24 07:52:04;;;;;;;;;;;;;;;18.00;66.69;95519.91;5137976;27;980;-63
2023/10/24 07:54:30;;;;;;;;;;;;;;;18.21;65.90;95521.69;5137778;27;1000;-63
2023/10/24 07:56:56;;;;;;;;;;;;;;;18.12;67.55;95518.34;5137738;27;1906;-63
2023/10/24 07:59:22;;;;;;;;;;;;;;;17.91;69.28;95513.84;5138169;27;987;-63
2023/10/24 08:01:48;;;;;;;;;;;;;;;18.00;68.83;95512.63;5138204;27;1045;-63
2023/10/24 08:04:14;;;;;;;;;;;;;;;18.14;67.84;95508.97;5137768;27;961;-63
2023/10/24 08:06:40;;;;;;;;;;;;;;;18.30;66.14;95505.09;5137740;27;972;-63
2023/10/24 08:09:06;;;;;;;;;;;;;;;18.30;66.72;95509.66;5137467;27;1084;-63
2023/10/24 08:11:32;;;;;;;;;;;;;;;18.31;65.62;95511.34;5137416;27;1064;-63
2023/10/24 08:13:58;;;;;;;;;;;;;;;18.56;65.09;95506.25;5137441;27;1017;-63
2023/10/24 08:16:24;;;;;;;;;;;;;;;18.57;66.49;95501.66;5137353;27;1075;-63
2023/10/24 08:18:50;;;;;;;;;;;;;;;18.73;65.26;95514.88;5137255;27;1991;-63
2023/10/24 08:21:16;;;;;;;;;;;;;;;18.79;65.94;95505.91;5137404;27;1039;-63
2023/10/24 08:23:42;;;;;;;;;;;;;;;19.05;64.52;95493.53;5137390;27;1011;-63
2023/10/24 08:26:08;;;;;;;;;;;;;;;19.18;64.20;95493.53;5137171;27;977;-63
2023/10/24 08:28:34;;;;;;;;;;;;;;;19.39;64.06;95497.09;5137377;27;995;-62
2023/10/24 08:31:00;;;;;;;;;;;;;;;19.52;62.79;95486.28;5137379;27;973;-63
2023/10/24 08:33:26;;;;;;;;;;;;;;;19.17;63.93;95485.63;5147945;27;1267;-62
2023/10/24 08:35:52;;;;;;;;;;;;;;;18.95;63.15;95493.06;5157125;27;964;-63
2023/10/24 08:38:17;;;;;;;;;;;;;;;18.95;64.05;95484.94;5157625;27;1995;-63
2023/10/24 08:40:44;;;;;;;;;;;;;;;19.18;63.88;95477.28;5139205;27;1031;-62
2023/10/24 08:43:10;;;;;;;;;;;;;;;19.31;61.75;95488.13;5157542;27;1308;-63
2023/10/24 08:45:36;;;;;;;;;;;;;;;19.29;63.51;95475.81;5157818;27;1036;-63
2023/10/24 08:48:05;;;;;;;;;;;;;;;19.57;63.02;95474.78;5157566;27;1031;-63
2023/10/24 08:50:34;;;;;;;;;;;;;;;19.52;62.73;95470.00;5157439;27;1044;-62
2023/10/24 08:53:01;;;;;;;;;;;;;;;19.75;62.74;95466.88;5157416;27;1103;-63
2023/10/24 08:55:27;;;;;;;;;;;;;;;19.94;62.11;95464.31;5157248;27;1099;-63
2023/10/24 08:57:54;;;;;;;;;;;;;;;19.74;61.73;95458.94;5157520;27;1998;-63
2023/10/24 09:00:20;;;;;;;;;;;;;;;19.73;62.19;95457.25;5157463;27;953;-63
2023/10/24 09:02:46;;;;;;;;;;;;;;;19.79;62.68;95461.88;5157303;27;1032;-63
2023/10/24 09:05:13;;;;;;;;;;;;;;;19.92;62.45;95458.28;5157209;27;968;-63
2023/10/24 09:07:40;;;;;;;;;;;;;;;19.73;62.79;95447.28;5157077;27;1071;-63
2023/10/24 09:10:06;;;;;;;;;;;;;;;19.73;62.37;95443.69;5156973;27;1059;-63
2023/10/24 09:12:33;;;;;;;;;;;;;;;19.84;61.08;95435.78;5156969;27;992;-63
2023/10/24 09:14:59;;;;;;;;;;;;;;;19.97;61.84;95436.78;5157173;27;956;-62
2023/10/24 09:17:25;;;;;;;;;;;;;;;19.99;61.74;95432.78;5156900;27;1913;-62
2023/10/24 09:19:55;;;;;;;;;;;;;;;19.99;61.31;95438.22;5156994;27;1028;-62
2023/10/24 09:22:22;;;;;;;;;;;;;;;19.94;62.66;95438.03;5156782;27;988;-62
2023/10/24 09:24:48;;;;;;;;;;;;;;;19.92;61.77;95428.44;5156667;27;961;-62
2023/10/24 09:27:21;;;;;;;;;;;;;;;20.04;61.97;95433.00;5156618;27;1094;-62
2023/10/24 09:29:50;;;;;;;;;;;;;;;19.92;62.36;95426.56;5156686;27;1317;-62
2023/10/24 09:32:17;;;;;;;;;;;;;;;19.82;60.81;95426.97;5155521;27;1231;-62
2023/10/24 09:34:46;;;;;;;;;;;;;;;19.99;61.88;95421.94;5135933;27;1056;-62
2023/10/24 09:37:16;;;;;;;;;;;;;;;20.07;63.73;95413.56;5135647;27;1910;-62
2023/10/24 09:40:00;;;;;;;;;;;;;;;20.21;61.13;95416.25;5135844;27;1036;-62
2023/10/24 09:42:27;;;;;;;;;;;;;;;20.26;60.86;95408.25;5135848;27;992;-62
2023/10/24 09:44:54;;;;;;;;;;;;;;;20.39;61.69;95391.91;5135669;27;1107;-63
2023/10/24 09:47:21;;;;;;;;;;;;;;;20.55;60.20;95398.75;5135063;27;1154;-63
2023/10/24 09:49:49;;;;;;;;;;;;;;;20.62;61.51;95394.16;5135555;27;1109;-62
2023/10/24 09:52:16;;;;;;;;;;;;;;;20.72;59.98;95387.41;5135752;27;1036;-62
2023/10/24 09:54:42;;;;;;;;;;;;;;;20.77;61.80;95385.69;5135678;27;1068;-63
2023/10/24 09:57:10;;;;;;;;;;;;;;;20.88;61.48;95383.31;5135539;27;1910;-62
2023/10/24 09:59:37;;;;;;;;;;;;;;;21.02;61.04;95382.19;5135517;27;1116;-62
2023/10/24 10:02:03;;;;;;;;;;;;;;;21.19;59.86;95380.56;5135380;27;1004;-62
2023/10/24 10:04:31;;;;;;;;;;;;;;;21.19;59.55;95374.28;5135196;27;1085;-62
2023/10/24 10:06:58;;;;;;;;;;;;;;;21.34;59.49;95371.22;5135095;27;1225;-64
2023/10/24 10:09:24;;;;;;;;;;;;;;;21.17;58.43;95377.25;5135374;27;973;-63
2023/10/24 10:11:53;;;;;;;;;;;;;;;21.14;60.33;95369.53;5135302;27;1077;-63
2023/10/24 10:14:22;;;;;;;;;;;;;;;21.11;59.02;95367.22;5135072;27;1036;-63
2023/10/24 10:16:53;;;;;;;;;;;;;;;21.19;59.20;95361.53;5135043;27;1048;-62
2023/10/24 10:19:39;;;;;;;;;;;;;;;21.19;59.31;95353.38;5134943;27;1028;-63
2023/10/24 10:22:14;;;;;;;;;;;;;;;21.36;58.67;95348.22;5134716;27;1239;-63
2023/10/24 10:24:55;;;;;;;;;;;;;;;21.62;58.90;95341.69;5134989;27;1035;-63
2023/10/24 10:27:39;;;;;;;;;;;;;;;21.85;57.63;95340.19;5134803;27;1020;-62
2023/10/24 10:30:09;;;;;;;;;;;;;;;21.91;57.46;95335.72;5134989;27;1007;-63
2023/10/24 10:32:38;;;;;;;;;;;;;;;21.79;56.43;95333.75;5120177;27;1173;-63
2023/10/24 10:35:04;;;;;;;;;;;;;;;22.03;55.63;95328.47;5137246;27;944;-63
2023/10/24 10:37:36;;;;;;;;;;;;;;;22.02;57.52;95318.63;5155336;27;1984;-63
2023/10/24 10:40:17;;;;;;;;;;;;;;;21.93;55.19;95288.19;5155322;27;1111;-62
2023/10/24 10:42:48;;;;;;;;;;;;;;;22.07;55.25;95312.50;5155277;27;1036;-62
2023/10/24 10:45:23;;;;;;;;;;;;;;;22.32;54.58;95306.97;5155382;27;1055;-63
2023/10/24 10:47:49;;;;;;;;;;;;;;;22.40;55.93;95304.75;5155262;27;1040;-62
2023/10/24 10:50:27;;;;;;;;;;;;;;;22.39;55.49;95304.97;5155058;27;965;-62
2023/10/24 10:52:59;;;;;;;;;;;;;;;22.36;54.90;95297.25;5155236;27;994;-63
2023/10/24 10:55:32;;;;;;;;;;;;;;;22.53;55.03;95294.72;5155240;27;991;-63
2023/10/24 10:58:03;;;;;;;;;;;;;;;22.74;54.72;95291.44;5154825;27;1901;-62
2023/10/24 11:00:37;;;;;;;;;;;;;;;22.87;53.79;95287.66;5155039;27;1022;-62
2023/10/24 11:03:12;;;;;;;;;;;;;;;22.97;53.48;95279.75;5155311;27;1059;-62
2023/10/24 11:05:39;;;;;;;;;;;;;;;22.92;53.65;95276.09;5155243;27;1047;-62
2023/10/24 11:08:09;;;;;;;;;;;;;;;22.98;52.99;95267.78;5154784;27;1241;-63
2023/10/24 11:10:58;;;;;;;;;;;;;;;22.90;52.92;95267.31;5122766;27;1277;-63
2023/10/24 11:13:31;;;;;;;;;;;;;;;22.93;52.37;95258.63;5154852;27;969;-63
2023/10/24 11:15:57;;;;;;;;;;;;;;;22.85;51.12;95248.91;5155124;27;1028;-63
2023/10/24 11:18:23;;;;;;;;;;;;;;;22.92;50.71;95248.81;5154844;27;1990;-62
2023/10/24 11:20:49;;;;;;;;;;;;;;;23.13;49.04;95242.78;5155023;27;976;-62
2023/10/24 11:23:15;;;;;;;;;;;;;;;23.19;50.04;95241.84;5154765;27;1043;-62
2023/10/24 11:25:41;;;;;;;;;;;;;;;23.15;50.72;95237.94;5154912;27;961;-62
2023/10/24 11:28:08;;;;;;;;;;;;;;;23.30;50.59;95239.34;5154767;27;959;-62
2023/10/24 11:30:34;;;;;;;;;;;;;;;23.34;49.97;95237.81;5154661;27;1028;-62
2023/10/24 11:33:03;;;;;;;;;;;;;;;23.26;48.99;95235.41;5147465;27;1152;-62
2023/10/24 11:35:29;;;;;;;;;;;;;;;23.31;49.90;95232.81;5134084;28;1036;-62
2023/10/24 11:37:56;;;;;;;;;;;;;;;23.42;49.89;95229.25;5133883;28;1913;-62
2023/10/24 11:40:22;;;;;;;;;;;;;;;23.39;49.17;95225.09;5133842;28;1122;-62
2023/10/24 11:42:47;;;;;;;;;;;;;;;23.32;50.16;95218.13;5115784;28;1064;-62
2023/10/24 11:45:13;;;;;;;;;;;;;;;23.26;49.95;95213.59;5115901;28;1052;-62
2023/10/24 11:47:39;;;;;;;;;;;;;;;23.37;50.79;95212.75;5134063;28;1048;-62
2023/10/24 11:50:05;;;;;;;;;;;;;;;23.42;50.43;95207.41;5133940;28;1048;-62
2023/10/24 11:52:31;;;;;;;;;;;;;;;23.26;50.20;95202.69;5133882;28;1112;-62
2023/10/24 11:55:00;;;;;;;;;;;;;;;23.14;48.82;95198.06;5133890;28;1007;-62
2023/10/24 11:57:26;;;;;;;;;;;;;;;23.24;49.69;95193.91;5133657;28;2002;-62
2023/10/24 11:59:53;;;;;;;;;;;;;;;23.30;48.83;95198.44;5134052;28;986;-62
2023/10/24 12:02:20;;;;;;;;;;;;;;;23.37;48.95;95194.50;5133650;28;1099;-62
2023/10/24 12:04:50;;;;;;;;;;;;;;;23.34;50.14;95189.53;5133853;28;1023;-62
2023/10/24 12:07:16;;;;;;;;;;;;;;;23.39;50.22;95183.34;5133433;28;1250;-63
2023/10/24 12:09:42;;;;;;;;;;;;;;;23.46;49.95;95175.03;5133688;27;1055;-62
2023/10/24 12:12:10;;;;;;;;;;;;;;;23.53;49.41;95168.38;5137464;27;969;-62
2023/10/24 12:14:37;;;;;;;;;;;;;;;23.56;50.71;95167.88;5137715;27;984;-62
2023/10/24 12:17:03;;;;;;;;;;;;;;;23.64;49.95;95166.69;5137545;27;1996;-62
2023/10/24 12:19:29;;;;;;;;;;;;;;;23.67;50.21;95157.16;5137412;27;1117;-62
2023/10/24 12:21:55;;;;;;;;;;;;;;;23.69;50.21;95160.47;5137342;27;1032;-62
2023/10/24 12:24:21;;;;;;;;;;;;;;;23.69;50.53;95153.09;5137168;27;1050;-62
2023/10/24 12:26:47;;;;;;;;;;;;;;;23.73;49.79;95158.91;5137482;27;1052;-62
2023/10/24 12:29:13;;;;;;;;;;;;;;;23.67;49.75;95157.16;5137341;27;980;-62
2023/10/24 12:31:40;;;;;;;;;;;;;;;23.65;49.03;95159.31;5137267;27;965;-62
2023/10/24 12:34:08;;;;;;;;;;;;;;;23.75;49.56;95156.75;5153710;27;1220;-62
2023/10/24 12:36:34;;;;;;;;;;;;;;;23.78;49.94;95153.56;5157796;27;1030;-62
2023/10/24 12:39:00;;;;;;;;;;;;;;;23.74;49.39;95155.94;5157561;27;1905;-61
2023/10/24 12:41:26;;;;;;;;;;;;;;;23.77;49.57;95146.44;5157699;27;1063;-62
2023/10/24 12:43:52;;;;;;;;;;;;;;;23.82;50.53;95146.56;5157547;27;1060;-62
2023/10/24 12:46:17;;;;;;;;;;;;;;;23.78;51.05;95143.50;5157748;27;972;-62
2023/10/24 12:48:43;;;;;;;;;;;;;;;23.64;51.04;95139.38;5157725;27;1044;-60
2023/10/24 12:51:09;;;;;;;;;;;;;;;23.66;51.58;95136.41;5157625;27;778;-59
2023/10/24 12:53:35;;;;;;;;;;;;;;;23.67;51.79;95140.78;5157587;27;908;-63
2023/10/24 12:56:01;;;;;;;;;;;;;;;23.65;52.09;95126.56;5157790;27;973;-63
2023/10/24 12:58:28;;;;;;;;;;;;;;;23.68;50.04;95139.72;5157335;27;1905;-63